sensor_id;sensor_type;location;lat;lon;timestamp;P1;durP1;ratioP1;P2;durP2;ratioP2
8909;SDS011;4490;49.072;8.804;2023-02-28T00:00:08;4.80;;;4.30;;
8909;SDS011;4490;49.072;8.804;2023-02-28T00:02:41;7.20;;;4.87;;
8909;SDS011;4490;49.072;8.804;2023-02-28T00:05:08;4.70;;;4.20;;
8909;SDS011;4490;49.072;8.804;2023-02-28T00:07:36;5.40;;;4.63;;
8909;SDS011;4490;49.072;8.804;2023-02-28T00:10:02;5.37;;;4.60;;
8909;SDS011;4490;49.072;8.804;2023-02-28T00:12:31;6.07;;;4.27;;
8909;SDS011;4490;49.072;8.804;2023-02-28T00:14:57;4.53;;;4.10;;
8909;SDS011;4490;49.072;8.804;2023-02-28T00:17:22;5.60;;;4.50;;
8909;SDS011;4490;49.072;8.804;2023-02-28T00:19:48;5.67;;;4.50;;
8909;SDS011;4490;49.072;8.804;2023-02-28T00:22:15;6.33;;;4.70;;
8909;SDS011;4490;49.072;8.804;2023-02-28T00:24:42;4.93;;;4.43;;
8909;SDS011;4490;49.072;8.804;2023-02-28T00:27:08;5.07;;;4.10;;
8909;SDS011;4490;49.072;8.804;2023-02-28T00:29:34;6.57;;;4.63;;
8909;SDS011;4490;49.072;8.804;2023-02-28T00:32:00;6.27;;;4.43;;
8909;SDS011;4490;49.072;8.804;2023-02-28T00:34:25;6.87;;;4.87;;
8909;SDS011;4490;49.072;8.804;2023-02-28T00:36:51;6.53;;;4.83;;
8909;SDS011;4490;49.072;8.804;2023-02-28T00:39:17;4.73;;;4.33;;
8909;SDS011;4490;49.072;8.804;2023-02-28T00:41:42;5.40;;;4.50;;
8909;SDS011;4490;49.072;8.804;2023-02-28T00:44:08;5.17;;;4.13;;
8909;SDS011;4490;49.072;8.804;2023-02-28T00:46:34;5.30;;;4.30;;
8909;SDS011;4490;49.072;8.804;2023-02-28T00:49:00;6.97;;;4.47;;
8909;SDS011;4490;49.072;8.804;2023-02-28T00:51:25;5.03;;;4.53;;
8909;SDS011;4490;49.072;8.804;2023-02-28T00:53:51;5.97;;;4.67;;
8909;SDS011;4490;49.072;8.804;2023-02-28T00:56:17;4.93;;;4.23;;
8909;SDS011;4490;49.072;8.804;2023-02-28T00:58:42;6.43;;;4.60;;
8909;SDS011;4490;49.072;8.804;2023-02-28T01:01:08;5.60;;;4.60;;
8909;SDS011;4490;49.072;8.804;2023-02-28T01:03:33;5.60;;;4.90;;
8909;SDS011;4490;49.072;8.804;2023-02-28T01:05:59;5.87;;;4.90;;
8909;SDS011;4490;49.072;8.804;2023-02-28T01:08:25;5.70;;;4.77;;
8909;SDS011;4490;49.072;8.804;2023-02-28T01:10:51;7.57;;;4.73;;
8909;SDS011;4490;49.072;8.804;2023-02-28T01:13:18;5.73;;;4.80;;
8909;SDS011;4490;49.072;8.804;2023-02-28T01:15:54;6.30;;;4.90;;
8909;SDS011;4490;49.072;8.804;2023-02-28T01:18:21;5.07;;;4.40;;
8909;SDS011;4490;49.072;8.804;2023-02-28T01:20:47;5.00;;;4.47;;
8909;SDS011;4490;49.072;8.804;2023-02-28T01:23:13;5.83;;;4.13;;
8909;SDS011;4490;49.072;8.804;2023-02-28T01:25:39;5.07;;;4.67;;
8909;SDS011;4490;49.072;8.804;2023-02-28T01:28:05;5.50;;;4.20;;
8909;SDS011;4490;49.072;8.804;2023-02-28T01:30:31;5.33;;;4.63;;
8909;SDS011;4490;49.072;8.804;2023-02-28T01:32:57;5.00;;;4.47;;
8909;SDS011;4490;49.072;8.804;2023-02-28T01:35:23;4.50;;;4.10;;
8909;SDS011;4490;49.072;8.804;2023-02-28T01:37:49;5.73;;;4.87;;
8909;SDS011;4490;49.072;8.804;2023-02-28T01:40:14;6.47;;;4.63;;
8909;SDS011;4490;49.072;8.804;2023-02-28T01:42:40;7.17;;;4.80;;
8909;SDS011;4490;49.072;8.804;2023-02-28T01:45:26;6.07;;;4.67;;
8909;SDS011;4490;49.072;8.804;2023-02-28T01:47:56;5.43;;;4.60;;
8909;SDS011;4490;49.072;8.804;2023-02-28T01:50:28;5.03;;;4.50;;
8909;SDS011;4490;49.072;8.804;2023-02-28T01:53:00;5.60;;;4.53;;
8909;SDS011;4490;49.072;8.804;2023-02-28T01:55:28;6.27;;;4.67;;
8909;SDS011;4490;49.072;8.804;2023-02-28T01:57:55;6.93;;;4.67;;
8909;SDS011;4490;49.072;8.804;2023-02-28T02:00:23;5.97;;;4.73;;
8909;SDS011;4490;49.072;8.804;2023-02-28T02:02:54;6.37;;;4.93;;
8909;SDS011;4490;49.072;8.804;2023-02-28T02:05:27;5.67;;;4.47;;
8909;SDS011;4490;49.072;8.804;2023-02-28T02:07:56;5.90;;;5.00;;
8909;SDS011;4490;49.072;8.804;2023-02-28T02:10:39;7.60;;;4.43;;
8909;SDS011;4490;49.072;8.804;2023-02-28T02:16:27;5.00;;;4.50;;
8909;SDS011;4490;49.072;8.804;2023-02-28T02:25:05;5.60;;;4.73;;
8909;SDS011;4490;49.072;8.804;2023-02-28T02:28:10;7.17;;;5.30;;
8909;SDS011;4490;49.072;8.804;2023-02-28T02:36:51;6.03;;;5.37;;
8909;SDS011;4490;49.072;8.804;2023-02-28T02:43:18;6.40;;;4.97;;
8909;SDS011;4490;49.072;8.804;2023-02-28T02:45:32;7.10;;;5.50;;
8909;SDS011;4490;49.072;8.804;2023-02-28T02:48:02;5.93;;;4.93;;
8909;SDS011;4490;49.072;8.804;2023-02-28T02:50:33;6.57;;;5.00;;
8909;SDS011;4490;49.072;8.804;2023-02-28T02:53:15;7.47;;;5.43;;
8909;SDS011;4490;49.072;8.804;2023-02-28T02:55:46;6.50;;;5.10;;
8909;SDS011;4490;49.072;8.804;2023-02-28T02:58:18;6.50;;;5.60;;
8909;SDS011;4490;49.072;8.804;2023-02-28T03:00:46;6.97;;;5.57;;
8909;SDS011;4490;49.072;8.804;2023-02-28T03:03:18;8.60;;;5.23;;
8909;SDS011;4490;49.072;8.804;2023-02-28T03:05:54;7.50;;;5.60;;
8909;SDS011;4490;49.072;8.804;2023-02-28T03:08:24;8.23;;;5.70;;
8909;SDS011;4490;49.072;8.804;2023-02-28T03:10:50;6.80;;;5.43;;
8909;SDS011;4490;49.072;8.804;2023-02-28T03:18:32;7.00;;;5.37;;
8909;SDS011;4490;49.072;8.804;2023-02-28T03:21:18;7.70;;;5.60;;
8909;SDS011;4490;49.072;8.804;2023-02-28T03:23:59;7.27;;;5.57;;
8909;SDS011;4490;49.072;8.804;2023-02-28T03:26:36;9.07;;;6.10;;
8909;SDS011;4490;49.072;8.804;2023-02-28T03:29:23;7.73;;;5.70;;
8909;SDS011;4490;49.072;8.804;2023-02-28T03:34:30;7.50;;;5.77;;
8909;SDS011;4490;49.072;8.804;2023-02-28T03:37:00;8.87;;;5.40;;
8909;SDS011;4490;49.072;8.804;2023-02-28T03:39:39;7.30;;;6.13;;
8909;SDS011;4490;49.072;8.804;2023-02-28T03:42:09;7.37;;;5.70;;
8909;SDS011;4490;49.072;8.804;2023-02-28T03:44:42;7.57;;;6.07;;
8909;SDS011;4490;49.072;8.804;2023-02-28T03:47:16;6.10;;;5.40;;
8909;SDS011;4490;49.072;8.804;2023-02-28T03:49:53;7.33;;;5.50;;
8909;SDS011;4490;49.072;8.804;2023-02-28T03:52:27;6.60;;;5.73;;
8909;SDS011;4490;49.072;8.804;2023-02-28T03:55:00;7.00;;;6.10;;
8909;SDS011;4490;49.072;8.804;2023-02-28T04:00:08;6.93;;;5.53;;
8909;SDS011;4490;49.072;8.804;2023-02-28T04:02:58;7.97;;;6.27;;
8909;SDS011;4490;49.072;8.804;2023-02-28T04:05:24;7.57;;;6.27;;
8909;SDS011;4490;49.072;8.804;2023-02-28T04:07:50;7.07;;;5.50;;
8909;SDS011;4490;49.072;8.804;2023-02-28T04:10:16;8.00;;;6.10;;
8909;SDS011;4490;49.072;8.804;2023-02-28T04:12:42;9.00;;;6.00;;
8909;SDS011;4490;49.072;8.804;2023-02-28T04:15:08;8.17;;;5.70;;
8909;SDS011;4490;49.072;8.804;2023-02-28T04:17:35;6.50;;;5.43;;
8909;SDS011;4490;49.072;8.804;2023-02-28T04:20:01;6.83;;;5.83;;
8909;SDS011;4490;49.072;8.804;2023-02-28T04:22:26;7.63;;;6.20;;
8909;SDS011;4490;49.072;8.804;2023-02-28T04:24:52;8.23;;;5.80;;
8909;SDS011;4490;49.072;8.804;2023-02-28T04:27:19;7.07;;;5.87;;
8909;SDS011;4490;49.072;8.804;2023-02-28T04:29:45;8.70;;;6.00;;
8909;SDS011;4490;49.072;8.804;2023-02-28T04:32:10;8.53;;;6.00;;
8909;SDS011;4490;49.072;8.804;2023-02-28T04:34:36;8.60;;;6.23;;
8909;SDS011;4490;49.072;8.804;2023-02-28T04:37:02;8.87;;;5.90;;
8909;SDS011;4490;49.072;8.804;2023-02-28T04:39:28;7.10;;;5.90;;
8909;SDS011;4490;49.072;8.804;2023-02-28T04:41:54;9.57;;;6.27;;
8909;SDS011;4490;49.072;8.804;2023-02-28T04:44:20;8.13;;;6.30;;
8909;SDS011;4490;49.072;8.804;2023-02-28T04:46:47;6.97;;;5.70;;
8909;SDS011;4490;49.072;8.804;2023-02-28T04:49:13;8.63;;;6.37;;
8909;SDS011;4490;49.072;8.804;2023-02-28T04:51:39;7.17;;;6.17;;
8909;SDS011;4490;49.072;8.804;2023-02-28T04:54:05;10.63;;;6.20;;
8909;SDS011;4490;49.072;8.804;2023-02-28T04:56:31;7.97;;;6.33;;
8909;SDS011;4490;49.072;8.804;2023-02-28T04:58:57;10.87;;;6.43;;
8909;SDS011;4490;49.072;8.804;2023-02-28T05:01:24;10.17;;;6.57;;
8909;SDS011;4490;49.072;8.804;2023-02-28T05:03:54;7.70;;;6.20;;
8909;SDS011;4490;49.072;8.804;2023-02-28T05:06:22;7.70;;;6.07;;
8909;SDS011;4490;49.072;8.804;2023-02-28T05:08:49;9.83;;;6.33;;
8909;SDS011;4490;49.072;8.804;2023-02-28T05:11:23;8.00;;;6.47;;
8909;SDS011;4490;49.072;8.804;2023-02-28T05:14:03;8.90;;;6.23;;
8909;SDS011;4490;49.072;8.804;2023-02-28T05:16:31;8.37;;;6.03;;
8909;SDS011;4490;49.072;8.804;2023-02-28T05:18:57;7.30;;;6.00;;
8909;SDS011;4490;49.072;8.804;2023-02-28T05:21:24;9.03;;;6.63;;
8909;SDS011;4490;49.072;8.804;2023-02-28T05:23:58;7.53;;;5.80;;
8909;SDS011;4490;49.072;8.804;2023-02-28T05:26:25;7.60;;;6.17;;
8909;SDS011;4490;49.072;8.804;2023-02-28T05:28:52;10.63;;;6.27;;
8909;SDS011;4490;49.072;8.804;2023-02-28T05:31:17;7.23;;;6.30;;
8909;SDS011;4490;49.072;8.804;2023-02-28T05:33:43;9.33;;;6.53;;
8909;SDS011;4490;49.072;8.804;2023-02-28T05:36:08;7.80;;;6.10;;
8909;SDS011;4490;49.072;8.804;2023-02-28T05:38:34;9.10;;;6.70;;
8909;SDS011;4490;49.072;8.804;2023-02-28T05:41:00;7.27;;;5.80;;
8909;SDS011;4490;49.072;8.804;2023-02-28T05:43:30;10.20;;;6.87;;
8909;SDS011;4490;49.072;8.804;2023-02-28T05:45:56;8.73;;;6.13;;
8909;SDS011;4490;49.072;8.804;2023-02-28T05:48:22;8.33;;;5.87;;
8909;SDS011;4490;49.072;8.804;2023-02-28T05:50:48;8.03;;;6.33;;
8909;SDS011;4490;49.072;8.804;2023-02-28T05:53:13;7.50;;;6.37;;
8909;SDS011;4490;49.072;8.804;2023-02-28T05:55:39;7.83;;;6.47;;
8909;SDS011;4490;49.072;8.804;2023-02-28T05:58:06;7.90;;;6.07;;
8909;SDS011;4490;49.072;8.804;2023-02-28T06:00:31;8.60;;;6.13;;
8909;SDS011;4490;49.072;8.804;2023-02-28T06:02:57;8.73;;;6.10;;
8909;SDS011;4490;49.072;8.804;2023-02-28T06:05:26;7.77;;;6.03;;
8909;SDS011;4490;49.072;8.804;2023-02-28T06:07:52;7.80;;;6.40;;
8909;SDS011;4490;49.072;8.804;2023-02-28T06:10:18;7.63;;;6.07;;
8909;SDS011;4490;49.072;8.804;2023-02-28T06:12:44;7.57;;;6.10;;
8909;SDS011;4490;49.072;8.804;2023-02-28T06:15:13;8.00;;;6.10;;
8909;SDS011;4490;49.072;8.804;2023-02-28T06:17:40;7.17;;;5.67;;
8909;SDS011;4490;49.072;8.804;2023-02-28T06:20:07;8.13;;;6.27;;
8909;SDS011;4490;49.072;8.804;2023-02-28T06:22:34;8.87;;;6.27;;
8909;SDS011;4490;49.072;8.804;2023-02-28T06:25:00;8.83;;;6.07;;
8909;SDS011;4490;49.072;8.804;2023-02-28T06:27:26;9.10;;;6.47;;
8909;SDS011;4490;49.072;8.804;2023-02-28T06:29:55;9.47;;;6.23;;
8909;SDS011;4490;49.072;8.804;2023-02-28T06:32:21;8.83;;;6.23;;
8909;SDS011;4490;49.072;8.804;2023-02-28T06:34:47;9.50;;;7.03;;
8909;SDS011;4490;49.072;8.804;2023-02-28T06:37:12;7.90;;;6.13;;
8909;SDS011;4490;49.072;8.804;2023-02-28T06:39:38;10.67;;;6.90;;
8909;SDS011;4490;49.072;8.804;2023-02-28T06:42:04;8.23;;;6.40;;
8909;SDS011;4490;49.072;8.804;2023-02-28T06:44:30;8.93;;;6.47;;
8909;SDS011;4490;49.072;8.804;2023-02-28T06:47:00;8.77;;;6.43;;
8909;SDS011;4490;49.072;8.804;2023-02-28T06:49:28;9.73;;;6.90;;
8909;SDS011;4490;49.072;8.804;2023-02-28T06:51:54;9.30;;;6.57;;
8909;SDS011;4490;49.072;8.804;2023-02-28T06:54:20;8.63;;;6.87;;
8909;SDS011;4490;49.072;8.804;2023-02-28T06:56:45;8.27;;;6.57;;
8909;SDS011;4490;49.072;8.804;2023-02-28T06:59:11;9.80;;;6.80;;
8909;SDS011;4490;49.072;8.804;2023-02-28T07:01:37;7.73;;;6.27;;
8909;SDS011;4490;49.072;8.804;2023-02-28T07:04:04;8.03;;;6.50;;
8909;SDS011;4490;49.072;8.804;2023-02-28T07:06:31;8.47;;;6.43;;
8909;SDS011;4490;49.072;8.804;2023-02-28T07:08:57;8.30;;;6.63;;
8909;SDS011;4490;49.072;8.804;2023-02-28T07:11:23;8.77;;;6.37;;
8909;SDS011;4490;49.072;8.804;2023-02-28T07:13:51;8.93;;;6.67;;
8909;SDS011;4490;49.072;8.804;2023-02-28T07:16:17;9.23;;;6.93;;
8909;SDS011;4490;49.072;8.804;2023-02-28T07:18:43;10.57;;;6.80;;
8909;SDS011;4490;49.072;8.804;2023-02-28T07:21:09;7.47;;;6.40;;
8909;SDS011;4490;49.072;8.804;2023-02-28T07:23:36;9.47;;;6.87;;
8909;SDS011;4490;49.072;8.804;2023-02-28T07:26:05;8.50;;;6.93;;
8909;SDS011;4490;49.072;8.804;2023-02-28T07:28:32;8.93;;;7.10;;
8909;SDS011;4490;49.072;8.804;2023-02-28T07:31:05;10.40;;;7.47;;
8909;SDS011;4490;49.072;8.804;2023-02-28T07:33:31;8.43;;;6.83;;
8909;SDS011;4490;49.072;8.804;2023-02-28T07:36:02;9.40;;;6.90;;
8909;SDS011;4490;49.072;8.804;2023-02-28T07:38:30;7.73;;;6.73;;
8909;SDS011;4490;49.072;8.804;2023-02-28T07:40:56;11.27;;;7.30;;
8909;SDS011;4490;49.072;8.804;2023-02-28T07:43:21;9.83;;;6.90;;
8909;SDS011;4490;49.072;8.804;2023-02-28T07:45:47;11.63;;;7.60;;
8909;SDS011;4490;49.072;8.804;2023-02-28T07:48:12;10.07;;;7.10;;
8909;SDS011;4490;49.072;8.804;2023-02-28T07:50:38;8.33;;;7.27;;
8909;SDS011;4490;49.072;8.804;2023-02-28T07:53:04;8.33;;;6.63;;
8909;SDS011;4490;49.072;8.804;2023-02-28T07:55:29;10.80;;;7.07;;
8909;SDS011;4490;49.072;8.804;2023-02-28T07:57:56;12.13;;;7.70;;
8909;SDS011;4490;49.072;8.804;2023-02-28T08:00:22;8.47;;;6.50;;
8909;SDS011;4490;49.072;8.804;2023-02-28T08:02:48;10.93;;;7.57;;
8909;SDS011;4490;49.072;8.804;2023-02-28T08:05:14;12.37;;;7.40;;
8909;SDS011;4490;49.072;8.804;2023-02-28T08:07:40;8.63;;;7.57;;
8909;SDS011;4490;49.072;8.804;2023-02-28T08:10:06;10.10;;;7.13;;
8909;SDS011;4490;49.072;8.804;2023-02-28T08:12:33;10.27;;;8.00;;
8909;SDS011;4490;49.072;8.804;2023-02-28T08:14:59;9.73;;;7.33;;
8909;SDS011;4490;49.072;8.804;2023-02-28T08:17:24;9.73;;;7.53;;
8909;SDS011;4490;49.072;8.804;2023-02-28T08:19:50;8.60;;;7.00;;
8909;SDS011;4490;49.072;8.804;2023-02-28T08:22:15;10.27;;;7.53;;
8909;SDS011;4490;49.072;8.804;2023-02-28T08:24:41;8.53;;;6.80;;
8909;SDS011;4490;49.072;8.804;2023-02-28T08:27:08;10.60;;;7.40;;
8909;SDS011;4490;49.072;8.804;2023-02-28T08:29:36;9.30;;;7.30;;
8909;SDS011;4490;49.072;8.804;2023-02-28T08:32:02;8.60;;;7.20;;
8909;SDS011;4490;49.072;8.804;2023-02-28T08:34:29;8.40;;;7.27;;
8909;SDS011;4490;49.072;8.804;2023-02-28T08:36:54;9.73;;;7.07;;
8909;SDS011;4490;49.072;8.804;2023-02-28T08:39:20;8.77;;;6.97;;
8909;SDS011;4490;49.072;8.804;2023-02-28T08:41:46;9.27;;;7.13;;
8909;SDS011;4490;49.072;8.804;2023-02-28T08:44:11;10.40;;;7.20;;
8909;SDS011;4490;49.072;8.804;2023-02-28T08:46:37;8.63;;;6.60;;
8909;SDS011;4490;49.072;8.804;2023-02-28T08:49:03;7.50;;;6.70;;
8909;SDS011;4490;49.072;8.804;2023-02-28T08:51:29;10.07;;;7.27;;
8909;SDS011;4490;49.072;8.804;2023-02-28T08:53:55;8.50;;;7.37;;
8909;SDS011;4490;49.072;8.804;2023-02-28T08:56:25;9.50;;;7.37;;
8909;SDS011;4490;49.072;8.804;2023-02-28T08:58:51;8.60;;;7.47;;
8909;SDS011;4490;49.072;8.804;2023-02-28T09:01:21;10.40;;;7.23;;
8909;SDS011;4490;49.072;8.804;2023-02-28T09:03:52;9.60;;;7.90;;
8909;SDS011;4490;49.072;8.804;2023-02-28T09:06:18;10.00;;;7.97;;
8909;SDS011;4490;49.072;8.804;2023-02-28T09:08:46;9.47;;;7.70;;
8909;SDS011;4490;49.072;8.804;2023-02-28T09:11:11;8.40;;;7.37;;
8909;SDS011;4490;49.072;8.804;2023-02-28T09:13:37;11.73;;;8.13;;
8909;SDS011;4490;49.072;8.804;2023-02-28T09:16:04;9.27;;;7.70;;
8909;SDS011;4490;49.072;8.804;2023-02-28T09:18:33;11.17;;;8.00;;
8909;SDS011;4490;49.072;8.804;2023-02-28T09:21:03;10.97;;;8.13;;
8909;SDS011;4490;49.072;8.804;2023-02-28T09:23:32;10.30;;;7.57;;
8909;SDS011;4490;49.072;8.804;2023-02-28T09:25:58;11.17;;;8.10;;
8909;SDS011;4490;49.072;8.804;2023-02-28T09:28:24;9.27;;;7.80;;
8909;SDS011;4490;49.072;8.804;2023-02-28T09:30:50;11.33;;;8.13;;
8909;SDS011;4490;49.072;8.804;2023-02-28T09:33:18;10.37;;;8.40;;
8909;SDS011;4490;49.072;8.804;2023-02-28T09:35:46;8.67;;;7.30;;
8909;SDS011;4490;49.072;8.804;2023-02-28T09:38:13;9.57;;;8.10;;
8909;SDS011;4490;49.072;8.804;2023-02-28T09:41:00;10.03;;;7.83;;
8909;SDS011;4490;49.072;8.804;2023-02-28T09:43:27;11.17;;;8.17;;
8909;SDS011;4490;49.072;8.804;2023-02-28T09:48:58;11.17;;;8.30;;
8909;SDS011;4490;49.072;8.804;2023-02-28T09:51:30;10.43;;;8.30;;
8909;SDS011;4490;49.072;8.804;2023-02-28T09:53:58;11.83;;;8.60;;
8909;SDS011;4490;49.072;8.804;2023-02-28T09:59:21;9.93;;;7.97;;
8909;SDS011;4490;49.072;8.804;2023-02-28T10:04:43;10.03;;;8.40;;
8909;SDS011;4490;49.072;8.804;2023-02-28T10:09:52;11.87;;;8.63;;
8909;SDS011;4490;49.072;8.804;2023-02-28T10:12:21;11.27;;;8.07;;
8909;SDS011;4490;49.072;8.804;2023-02-28T10:14:47;10.43;;;8.23;;
8909;SDS011;4490;49.072;8.804;2023-02-28T10:17:17;10.17;;;7.90;;
8909;SDS011;4490;49.072;8.804;2023-02-28T10:19:58;11.90;;;8.70;;
8909;SDS011;4490;49.072;8.804;2023-02-28T10:22:38;11.73;;;7.97;;
8909;SDS011;4490;49.072;8.804;2023-02-28T10:25:26;11.47;;;8.57;;
8909;SDS011;4490;49.072;8.804;2023-02-28T10:27:54;11.20;;;8.73;;
8909;SDS011;4490;49.072;8.804;2023-02-28T10:30:26;10.93;;;8.33;;
8909;SDS011;4490;49.072;8.804;2023-02-28T10:32:52;10.87;;;8.20;;
8909;SDS011;4490;49.072;8.804;2023-02-28T10:37:50;12.30;;;8.57;;
8909;SDS011;4490;49.072;8.804;2023-02-28T10:43:01;11.33;;;8.47;;
8909;SDS011;4490;49.072;8.804;2023-02-28T10:45:32;12.70;;;8.77;;
8909;SDS011;4490;49.072;8.804;2023-02-28T10:50:58;10.60;;;8.67;;
8909;SDS011;4490;49.072;8.804;2023-02-28T10:53:30;10.33;;;8.37;;
8909;SDS011;4490;49.072;8.804;2023-02-28T10:58:49;9.77;;;8.47;;
8909;SDS011;4490;49.072;8.804;2023-02-28T11:03:50;10.90;;;8.93;;
8909;SDS011;4490;49.072;8.804;2023-02-28T11:08:49;10.00;;;9.00;;
8909;SDS011;4490;49.072;8.804;2023-02-28T11:11:20;11.20;;;9.10;;
8909;SDS011;4490;49.072;8.804;2023-02-28T11:13:48;10.50;;;8.47;;
8909;SDS011;4490;49.072;8.804;2023-02-28T11:16:17;10.43;;;8.60;;
8909;SDS011;4490;49.072;8.804;2023-02-28T11:23:52;10.13;;;9.03;;
8909;SDS011;4490;49.072;8.804;2023-02-28T11:26:35;10.93;;;8.87;;
8909;SDS011;4490;49.072;8.804;2023-02-28T11:29:08;9.90;;;8.13;;
8909;SDS011;4490;49.072;8.804;2023-02-28T11:34:46;13.23;;;9.17;;
8909;SDS011;4490;49.072;8.804;2023-02-28T11:37:25;9.60;;;8.40;;
8909;SDS011;4490;49.072;8.804;2023-02-28T11:39:53;13.00;;;9.67;;
8909;SDS011;4490;49.072;8.804;2023-02-28T11:42:23;11.13;;;8.97;;
8909;SDS011;4490;49.072;8.804;2023-02-28T11:45:11;10.00;;;8.80;;
8909;SDS011;4490;49.072;8.804;2023-02-28T11:52:53;11.43;;;8.73;;
8909;SDS011;4490;49.072;8.804;2023-02-28T11:58:07;10.17;;;8.43;;
8909;SDS011;4490;49.072;8.804;2023-02-28T12:00:57;13.33;;;9.73;;
8909;SDS011;4490;49.072;8.804;2023-02-28T12:27:39;10.73;;;9.63;;
8909;SDS011;4490;49.072;8.804;2023-02-28T12:32:47;10.97;;;8.97;;
8909;SDS011;4490;49.072;8.804;2023-02-28T12:35:32;10.87;;;8.83;;
8909;SDS011;4490;49.072;8.804;2023-02-28T12:38:04;12.70;;;9.23;;
8909;SDS011;4490;49.072;8.804;2023-02-28T12:40:41;11.43;;;10.10;;
8909;SDS011;4490;49.072;8.804;2023-02-28T12:43:18;10.80;;;9.20;;
8909;SDS011;4490;49.072;8.804;2023-02-28T12:45:55;10.80;;;8.57;;
8909;SDS011;4490;49.072;8.804;2023-02-28T12:48:30;11.00;;;9.90;;
8909;SDS011;4490;49.072;8.804;2023-02-28T12:51:02;10.67;;;9.30;;
8909;SDS011;4490;49.072;8.804;2023-02-28T12:53:37;11.00;;;9.80;;
8909;SDS011;4490;49.072;8.804;2023-02-28T12:58:58;11.47;;;9.67;;
8909;SDS011;4490;49.072;8.804;2023-02-28T13:09:30;10.33;;;8.97;;
8909;SDS011;4490;49.072;8.804;2023-02-28T13:11:55;11.27;;;9.60;;
8909;SDS011;4490;49.072;8.804;2023-02-28T13:14:30;14.33;;;9.90;;
8909;SDS011;4490;49.072;8.804;2023-02-28T13:19:43;12.50;;;9.33;;
8909;SDS011;4490;49.072;8.804;2023-02-28T13:22:17;12.13;;;10.13;;
8909;SDS011;4490;49.072;8.804;2023-02-28T13:34:33;11.10;;;9.27;;
8909;SDS011;4490;49.072;8.804;2023-02-28T13:47:34;11.57;;;10.37;;
8909;SDS011;4490;49.072;8.804;2023-02-28T13:50:21;12.33;;;10.50;;
8909;SDS011;4490;49.072;8.804;2023-02-28T13:52:54;13.27;;;9.87;;
8909;SDS011;4490;49.072;8.804;2023-02-28T14:04:43;12.57;;;9.43;;
8909;SDS011;4490;49.072;8.804;2023-02-28T14:07:21;13.00;;;9.83;;
8909;SDS011;4490;49.072;8.804;2023-02-28T14:09:55;12.50;;;10.57;;
8909;SDS011;4490;49.072;8.804;2023-02-28T14:23:39;13.03;;;10.73;;
8909;SDS011;4490;49.072;8.804;2023-02-28T14:27:05;13.33;;;10.33;;
8909;SDS011;4490;49.072;8.804;2023-02-28T14:32:11;11.53;;;9.93;;
8909;SDS011;4490;49.072;8.804;2023-02-28T14:37:25;11.23;;;10.07;;
8909;SDS011;4490;49.072;8.804;2023-02-28T14:39:55;12.03;;;10.73;;
8909;SDS011;4490;49.072;8.804;2023-02-28T14:42:27;11.87;;;10.67;;
8909;SDS011;4490;49.072;8.804;2023-02-28T14:44:58;11.10;;;9.93;;
8909;SDS011;4490;49.072;8.804;2023-02-28T14:47:31;10.93;;;9.90;;
8909;SDS011;4490;49.072;8.804;2023-02-28T14:49:59;12.47;;;10.40;;
8909;SDS011;4490;49.072;8.804;2023-02-28T14:52:26;11.97;;;10.13;;
8909;SDS011;4490;49.072;8.804;2023-02-28T14:54:55;11.43;;;10.20;;
8909;SDS011;4490;49.072;8.804;2023-02-28T14:59:58;12.20;;;10.20;;
8909;SDS011;4490;49.072;8.804;2023-02-28T15:02:40;10.90;;;9.77;;
8909;SDS011;4490;49.072;8.804;2023-02-28T15:07:35;12.17;;;10.43;;
8909;SDS011;4490;49.072;8.804;2023-02-28T15:12:53;11.03;;;9.90;;
8909;SDS011;4490;49.072;8.804;2023-02-28T15:15:21;11.80;;;10.37;;
8909;SDS011;4490;49.072;8.804;2023-02-28T15:17:52;11.30;;;10.10;;
8909;SDS011;4490;49.072;8.804;2023-02-28T15:20:22;10.60;;;9.50;;
8909;SDS011;4490;49.072;8.804;2023-02-28T15:22:49;11.63;;;10.13;;
8909;SDS011;4490;49.072;8.804;2023-02-28T15:25:18;12.00;;;10.80;;
8909;SDS011;4490;49.072;8.804;2023-02-28T15:27:47;12.73;;;10.87;;
8909;SDS011;4490;49.072;8.804;2023-02-28T15:30:17;11.63;;;10.37;;
8909;SDS011;4490;49.072;8.804;2023-02-28T15:36:02;12.27;;;10.90;;
8909;SDS011;4490;49.072;8.804;2023-02-28T15:38:39;11.27;;;10.03;;
8909;SDS011;4490;49.072;8.804;2023-02-28T15:41:20;12.93;;;10.90;;
8909;SDS011;4490;49.072;8.804;2023-02-28T15:46:40;12.07;;;10.57;;
8909;SDS011;4490;49.072;8.804;2023-02-28T15:49:27;12.60;;;10.53;;
8909;SDS011;4490;49.072;8.804;2023-02-28T15:51:58;12.70;;;10.37;;
8909;SDS011;4490;49.072;8.804;2023-02-28T15:54:29;12.87;;;10.80;;
8909;SDS011;4490;49.072;8.804;2023-02-28T15:57:01;16.50;;;11.40;;
8909;SDS011;4490;49.072;8.804;2023-02-28T15:59:33;15.97;;;10.50;;
8909;SDS011;4490;49.072;8.804;2023-02-28T16:04:34;13.10;;;10.60;;
8909;SDS011;4490;49.072;8.804;2023-02-28T16:07:02;15.03;;;10.37;;
8909;SDS011;4490;49.072;8.804;2023-02-28T16:09:29;13.30;;;10.50;;
8909;SDS011;4490;49.072;8.804;2023-02-28T16:11:56;15.83;;;10.13;;
8909;SDS011;4490;49.072;8.804;2023-02-28T16:14:29;15.33;;;10.90;;
8909;SDS011;4490;49.072;8.804;2023-02-28T16:17:05;12.77;;;10.67;;
8909;SDS011;4490;49.072;8.804;2023-02-28T16:19:36;18.87;;;11.40;;
8909;SDS011;4490;49.072;8.804;2023-02-28T16:22:01;14.23;;;10.10;;
8909;SDS011;4490;49.072;8.804;2023-02-28T16:24:27;12.70;;;10.70;;
8909;SDS011;4490;49.072;8.804;2023-02-28T16:26:53;12.67;;;10.70;;
8909;SDS011;4490;49.072;8.804;2023-02-28T16:29:25;13.43;;;10.37;;
8909;SDS011;4490;49.072;8.804;2023-02-28T16:31:54;14.60;;;10.90;;
8909;SDS011;4490;49.072;8.804;2023-02-28T16:34:20;13.23;;;11.00;;
8909;SDS011;4490;49.072;8.804;2023-02-28T16:36:47;12.63;;;10.73;;
8909;SDS011;4490;49.072;8.804;2023-02-28T16:39:13;13.97;;;10.53;;
8909;SDS011;4490;49.072;8.804;2023-02-28T16:41:41;12.27;;;10.60;;
8909;SDS011;4490;49.072;8.804;2023-02-28T16:44:10;13.77;;;11.40;;
8909;SDS011;4490;49.072;8.804;2023-02-28T16:46:45;13.50;;;10.37;;
8909;SDS011;4490;49.072;8.804;2023-02-28T16:49:11;13.27;;;10.63;;
8909;SDS011;4490;49.072;8.804;2023-02-28T16:51:37;14.00;;;10.93;;
8909;SDS011;4490;49.072;8.804;2023-02-28T16:54:03;13.20;;;10.83;;
8909;SDS011;4490;49.072;8.804;2023-02-28T16:56:29;13.53;;;10.73;;
8909;SDS011;4490;49.072;8.804;2023-02-28T16:58:55;13.63;;;11.37;;
8909;SDS011;4490;49.072;8.804;2023-02-28T17:01:24;12.13;;;10.80;;
8909;SDS011;4490;49.072;8.804;2023-02-28T17:03:52;14.33;;;10.93;;
8909;SDS011;4490;49.072;8.804;2023-02-28T17:06:25;17.03;;;12.20;;
8909;SDS011;4490;49.072;8.804;2023-02-28T17:08:55;13.37;;;11.17;;
8909;SDS011;4490;49.072;8.804;2023-02-28T17:11:23;12.77;;;10.83;;
8909;SDS011;4490;49.072;8.804;2023-02-28T17:13:49;14.27;;;11.70;;
8909;SDS011;4490;49.072;8.804;2023-02-28T17:16:28;14.40;;;11.43;;
8909;SDS011;4490;49.072;8.804;2023-02-28T17:18:57;14.47;;;11.80;;
8909;SDS011;4490;49.072;8.804;2023-02-28T17:21:24;13.70;;;11.37;;
8909;SDS011;4490;49.072;8.804;2023-02-28T17:23:50;13.63;;;11.13;;
8909;SDS011;4490;49.072;8.804;2023-02-28T17:26:17;15.30;;;11.77;;
8909;SDS011;4490;49.072;8.804;2023-02-28T17:28:49;16.30;;;11.17;;
8909;SDS011;4490;49.072;8.804;2023-02-28T17:31:16;15.17;;;11.20;;
8909;SDS011;4490;49.072;8.804;2023-02-28T17:33:42;14.57;;;11.30;;
8909;SDS011;4490;49.072;8.804;2023-02-28T17:36:10;13.73;;;11.20;;
8909;SDS011;4490;49.072;8.804;2023-02-28T17:38:39;14.27;;;11.30;;
8909;SDS011;4490;49.072;8.804;2023-02-28T17:41:05;15.17;;;11.13;;
8909;SDS011;4490;49.072;8.804;2023-02-28T17:43:33;14.03;;;10.90;;
8909;SDS011;4490;49.072;8.804;2023-02-28T17:45:58;13.70;;;10.97;;
8909;SDS011;4490;49.072;8.804;2023-02-28T17:48:24;14.63;;;12.03;;
8909;SDS011;4490;49.072;8.804;2023-02-28T17:50:50;14.90;;;11.90;;
8909;SDS011;4490;49.072;8.804;2023-02-28T17:53:16;15.63;;;11.37;;
8909;SDS011;4490;49.072;8.804;2023-02-28T17:55:42;15.33;;;11.47;;
8909;SDS011;4490;49.072;8.804;2023-02-28T17:58:09;18.10;;;11.50;;
8909;SDS011;4490;49.072;8.804;2023-02-28T18:00:37;15.20;;;11.80;;
8909;SDS011;4490;49.072;8.804;2023-02-28T18:03:03;15.40;;;11.33;;
8909;SDS011;4490;49.072;8.804;2023-02-28T18:05:29;14.03;;;11.10;;
8909;SDS011;4490;49.072;8.804;2023-02-28T18:07:55;17.03;;;11.93;;
8909;SDS011;4490;49.072;8.804;2023-02-28T18:10:21;16.30;;;11.77;;
8909;SDS011;4490;49.072;8.804;2023-02-28T18:12:48;15.37;;;12.87;;